SBOSBO ZAG / LDZA
Speedbird OnlineSpeedbird Online ZAG / LDZA

Zagreb Airport
10:16 14.8°C

Location Zagreb, Croatia
Latitude: 45.7429008484
Longitude: 16.0687999725
Web Wikipedia
Altitude 108 Meter / 353 Feet
Distance 1,331 KM / 827 Miles
from London.
Time Zone UTC +2 hours (Europe/Zagreb)
Codes IATA: ZAG
ICAO: LDZA
Currency £1 equals HRK 8.62
Runways
RunwayLength (m)Surface
043252Asphalt
223252Asphalt
Radio
TypeDescriptionFrequency
APPAPP120.7
ATISATIS124.375
GNDGND121.85
INFOINFO124.85
RDRRADAR120.7
TWRTWR118.3
Live ATC
METAR LDZA 060800Z VRB01KT CAVOK 14/11 Q1028 NOSIG
TAF TAF LDZA 060525Z 0606/0706 VRB02KT CAVOK TX22/0613Z TN09/0704Z PROB30 0703/0706 0500 FG
Weather As Of 06 Oct 2022 10:16
Description Clear sky
Wind 2 km/h from North (0°)
Cloud Cover 0%
Precipitation Rain: none, Snow: none
Sunrise 06:59
Sunset 18:27
Lounges Primeclass Lounge , Main Terminal- Level 2
Rotations During the last 90 days there were
66 flights from LHR
1 flights from LGW
68 flights to LHR
1 flights to DBV


© 2017-2022 Speedbird Online